createdAt,value
2022-09-17T00:01:05.309Z,18.60
2022-09-17T00:03:34.248Z,18.61
2022-09-17T00:06:09.829Z,18.60
2022-09-17T00:08:38.940Z,18.58
2022-09-17T00:11:18.554Z,18.58
2022-09-17T00:13:45.271Z,18.56
2022-09-17T00:16:12.808Z,18.56
2022-09-17T00:18:43.175Z,18.57
2022-09-17T00:21:17.371Z,18.56
2022-09-17T00:23:44.766Z,18.53
2022-09-17T00:26:11.565Z,18.54
2022-09-17T00:28:38.787Z,18.53
2022-09-17T00:31:09.516Z,18.53
2022-09-17T00:33:37.063Z,18.50
2022-09-17T00:36:06.563Z,18.51
2022-09-17T00:38:34.512Z,18.50
2022-09-17T00:41:02.233Z,18.48
2022-09-17T00:43:43.958Z,18.46
2022-09-17T00:46:32.600Z,18.46
2022-09-17T00:49:07.131Z,18.48
2022-09-17T00:51:37.330Z,18.46
2022-09-17T00:54:07.682Z,18.45
2022-09-17T00:56:37.142Z,18.43
2022-09-17T00:59:04.594Z,18.43
2022-09-17T01:01:32.192Z,18.43
2022-09-17T01:03:59.139Z,18.41
2022-09-17T01:06:33.137Z,18.42
2022-09-17T01:09:22.340Z,18.41
2022-09-17T01:12:20.847Z,18.38
2022-09-17T01:14:50.396Z,18.40
2022-09-17T01:17:28.819Z,18.42
2022-09-17T01:20:14.083Z,18.39
2022-09-17T01:23:07.973Z,18.36
2022-09-17T01:25:52.985Z,18.36
2022-09-17T01:28:49.377Z,18.35
2022-09-17T01:31:22.351Z,18.36
2022-09-17T01:34:01.539Z,18.35
2022-09-17T01:36:43.012Z,18.34
2022-09-17T01:39:18.794Z,18.34
2022-09-17T01:41:59.636Z,18.37
2022-09-17T01:44:50.649Z,18.35
2022-09-17T01:47:37.833Z,18.33
2022-09-17T01:50:09.695Z,18.33
2022-09-17T01:52:39.001Z,18.31
2022-09-17T01:55:08.092Z,18.33
2022-09-17T01:57:37.876Z,18.30
2022-09-17T02:00:09.833Z,18.30
2022-09-17T02:03:23.717Z,18.29
2022-09-17T02:05:55.627Z,18.27
2022-09-17T02:08:26.247Z,18.28
2022-09-17T02:11:00.825Z,18.29
2022-09-17T02:13:59.846Z,18.29
2022-09-17T02:16:29.247Z,18.26
2022-09-17T02:19:01.122Z,18.27
2022-09-17T02:21:53.472Z,18.25
2022-09-17T02:24:46.611Z,18.24
2022-09-17T02:27:28.417Z,18.26
2022-09-17T02:29:55.143Z,18.23
2022-09-17T02:32:21.963Z,18.22
2022-09-17T02:34:48.704Z,18.21
2022-09-17T02:37:15.429Z,18.21
2022-09-17T02:39:42.827Z,18.19
2022-09-17T02:42:18.369Z,18.19
2022-09-17T02:45:27.021Z,18.21
2022-09-17T02:48:08.081Z,18.22
2022-09-17T02:50:56.511Z,18.20
2022-09-17T02:53:38.433Z,18.18
2022-09-17T02:56:22.921Z,18.17
2022-09-17T02:59:14.499Z,18.17
2022-09-17T03:01:45.644Z,18.12
2022-09-17T03:04:15.934Z,18.16
2022-09-17T03:06:46.187Z,18.15
2022-09-17T03:09:14.369Z,18.15
2022-09-17T03:11:42.158Z,18.14
2022-09-17T03:14:08.863Z,18.12
2022-09-17T03:16:35.395Z,18.14
2022-09-17T03:19:02.032Z,18.14
2022-09-17T03:21:29.082Z,18.13
2022-09-17T03:23:55.734Z,18.13
2022-09-17T03:26:22.369Z,18.11
2022-09-17T03:28:49.042Z,18.12
2022-09-17T03:31:15.740Z,18.14
2022-09-17T03:33:42.379Z,18.12
2022-09-17T03:36:08.978Z,18.14
2022-09-17T03:38:36.284Z,18.10
2022-09-17T03:41:06.719Z,18.11
2022-09-17T03:43:33.824Z,18.09
2022-09-17T03:46:00.691Z,18.10
2022-09-17T03:48:27.902Z,18.08
2022-09-17T03:50:54.651Z,18.08
2022-09-17T03:53:21.382Z,18.08
2022-09-17T03:55:48.088Z,18.08
2022-09-17T03:58:14.586Z,18.07
2022-09-17T04:00:41.959Z,18.06
2022-09-17T04:03:08.642Z,18.07
2022-09-17T04:05:35.266Z,18.04
2022-09-17T04:08:02.754Z,18.05
2022-09-17T04:10:29.434Z,18.03
2022-09-17T04:12:56.106Z,18.03
2022-09-17T04:15:22.792Z,18.03
2022-09-17T04:17:49.359Z,18.02
2022-09-17T04:20:16.181Z,18.02
2022-09-17T04:22:42.886Z,18.02
2022-09-17T04:25:11.267Z,18.02
2022-09-17T04:27:38.151Z,18.02
2022-09-17T04:30:05.575Z,18.02
2022-09-17T04:32:32.284Z,18.03
2022-09-17T04:34:59.148Z,18.00
2022-09-17T04:37:25.936Z,17.99
2022-09-17T04:39:52.930Z,18.00
2022-09-17T04:42:19.813Z,17.99
2022-09-17T04:44:46.405Z,17.97
2022-09-17T04:47:13.072Z,17.97
2022-09-17T04:49:39.750Z,17.99
2022-09-17T04:52:06.430Z,17.96
2022-09-17T04:54:33.013Z,17.95
2022-09-17T04:57:00.545Z,17.92
2022-09-17T04:59:27.499Z,17.93
2022-09-17T05:01:54.154Z,17.94
2022-09-17T05:04:20.840Z,17.95
2022-09-17T05:06:47.444Z,17.91
2022-09-17T05:09:14.864Z,17.94
2022-09-17T05:11:42.057Z,17.93
2022-09-17T05:14:08.918Z,17.93
2022-09-17T05:16:35.603Z,17.92
2022-09-17T05:19:02.292Z,17.96
2022-09-17T05:21:29.174Z,17.93
2022-09-17T05:23:55.799Z,17.91
2022-09-17T05:26:22.449Z,17.90
2022-09-17T05:28:49.086Z,17.87
2022-09-17T05:31:15.834Z,17.89
2022-09-17T05:33:42.629Z,17.88
2022-09-17T05:36:09.383Z,17.86
2022-09-17T05:38:35.933Z,17.87
2022-09-17T05:41:08.633Z,17.93
2022-09-17T05:43:35.331Z,17.94
2022-09-17T05:46:06.612Z,17.98
2022-09-17T05:48:33.385Z,17.97
2022-09-17T05:51:00.061Z,17.90
2022-09-17T05:53:26.772Z,17.92
2022-09-17T05:56:00.148Z,17.89
2022-09-17T05:58:27.202Z,17.88
2022-09-17T06:00:53.973Z,17.85
2022-09-17T06:03:22.802Z,17.88
2022-09-17T06:05:55.038Z,17.86
2022-09-17T06:08:23.126Z,17.87
2022-09-17T06:10:49.814Z,17.86
2022-09-17T06:13:17.722Z,17.88
2022-09-17T06:15:52.747Z,17.84
2022-09-17T06:18:20.573Z,17.79
2022-09-17T06:20:58.556Z,17.79
2022-09-17T06:23:26.206Z,17.83
2022-09-17T06:25:56.861Z,17.83
2022-09-17T06:28:24.379Z,17.79
2022-09-17T06:30:54.370Z,17.79
2022-09-17T06:33:22.040Z,17.78
2022-09-17T06:35:49.182Z,17.78
2022-09-17T06:38:15.974Z,17.77
2022-09-17T06:40:42.620Z,17.77
2022-09-17T06:43:09.331Z,17.77
2022-09-17T06:45:36.123Z,17.74
2022-09-17T06:48:06.300Z,17.75
2022-09-17T06:50:33.041Z,17.75
2022-09-17T06:52:59.872Z,17.78
2022-09-17T06:55:26.945Z,17.96
2022-09-17T06:57:53.897Z,17.99
2022-09-17T07:00:20.633Z,18.08
2022-09-17T07:03:00.771Z,18.22
2022-09-17T07:05:29.675Z,18.25
2022-09-17T07:07:56.488Z,18.30
2022-09-17T07:10:23.489Z,18.31
2022-09-17T07:12:50.225Z,18.41
2022-09-17T07:15:17.122Z,18.46
2022-09-17T07:17:44.578Z,18.35
2022-09-17T07:20:11.902Z,18.40
2022-09-17T07:22:38.886Z,18.35
2022-09-17T07:25:06.216Z,18.37
2022-09-17T07:27:33.086Z,18.39
2022-09-17T07:29:59.702Z,18.45
2022-09-17T07:32:26.548Z,18.46
2022-09-17T07:34:53.207Z,18.48
2022-09-17T07:37:21.376Z,18.36
2022-09-17T07:39:48.140Z,18.41
2022-09-17T07:42:14.911Z,18.35
2022-09-17T07:44:41.769Z,18.34
2022-09-17T07:47:09.985Z,18.31
2022-09-17T07:49:36.775Z,18.32
2022-09-17T07:52:06.755Z,18.30
2022-09-17T07:54:33.983Z,18.29
2022-09-17T07:57:01.124Z,18.24
2022-09-17T07:59:27.809Z,18.31
2022-09-17T08:01:54.677Z,18.32
2022-09-17T08:04:22.181Z,18.38
2022-09-17T08:06:48.999Z,18.37
2022-09-17T08:09:17.706Z,18.31
2022-09-17T08:11:55.722Z,18.38
2022-09-17T08:14:28.438Z,18.32
2022-09-17T08:16:56.447Z,18.30
2022-09-17T08:19:23.175Z,18.27
2022-09-17T08:21:49.915Z,18.33
2022-09-17T08:24:16.676Z,18.37
2022-09-17T08:26:43.476Z,18.47
2022-09-17T08:29:11.293Z,18.49
2022-09-17T08:31:38.081Z,18.43
2022-09-17T08:34:09.259Z,18.41
2022-09-17T08:36:35.893Z,18.42
2022-09-17T08:39:02.610Z,18.53
2022-09-17T08:41:57.323Z,18.54
2022-09-17T08:44:32.566Z,18.59
2022-09-17T08:47:03.402Z,18.59
2022-09-17T08:49:50.953Z,18.53
2022-09-17T08:52:29.152Z,18.48
2022-09-17T08:55:31.449Z,18.38
2022-09-17T08:58:00.801Z,18.43
2022-09-17T09:00:31.109Z,18.43
2022-09-17T09:03:29.310Z,18.43
2022-09-17T09:05:59.018Z,18.41
2022-09-17T09:09:16.207Z,18.44
2022-09-17T09:11:45.852Z,18.45
2022-09-17T09:14:27.551Z,18.37
2022-09-17T09:16:56.667Z,18.31
2022-09-17T09:19:30.286Z,18.39
2022-09-17T09:22:14.307Z,18.35
2022-09-17T09:24:45.885Z,18.39
2022-09-17T09:27:21.566Z,18.42
2022-09-17T09:30:06.582Z,18.42
2022-09-17T09:32:52.659Z,18.41
2022-09-17T09:35:36.452Z,18.40
2022-09-17T09:38:31.555Z,18.41
2022-09-17T09:41:13.300Z,18.45
2022-09-17T09:43:59.879Z,18.50
2022-09-17T09:46:50.338Z,18.53
2022-09-17T09:49:50.544Z,18.42
2022-09-17T09:52:35.928Z,18.40
2022-09-17T09:55:26.389Z,18.43
2022-09-17T09:58:12.066Z,18.45
2022-09-17T10:00:40.585Z,18.54
2022-09-17T10:03:21.051Z,18.44
2022-09-17T10:06:02.632Z,18.49
2022-09-17T10:08:32.298Z,18.52
2022-09-17T10:11:08.797Z,18.47
2022-09-17T10:13:36.958Z,18.43
2022-09-17T10:16:16.905Z,18.41
2022-09-17T10:18:44.767Z,18.43
2022-09-17T10:21:35.818Z,18.49
2022-09-17T10:24:05.375Z,18.53
2022-09-17T10:26:35.190Z,18.56
2022-09-17T10:29:28.009Z,18.56
2022-09-17T10:31:57.132Z,18.53
2022-09-17T10:34:28.999Z,18.46
2022-09-17T10:36:57.270Z,18.56
2022-09-17T10:39:26.895Z,18.50
2022-09-17T10:41:58.850Z,18.54
2022-09-17T10:44:36.777Z,18.54
2022-09-17T10:47:30.939Z,18.51
2022-09-17T10:50:01.405Z,18.45
2022-09-17T10:52:38.162Z,18.53
2022-09-17T10:55:30.962Z,18.56
2022-09-17T10:58:08.310Z,18.53
2022-09-17T11:00:56.750Z,18.41
2022-09-17T11:03:23.326Z,18.33
2022-09-17T11:05:55.784Z,18.35
2022-09-17T11:08:50.690Z,18.31
2022-09-17T11:11:17.433Z,18.34
2022-09-17T11:13:50.646Z,18.34
2022-09-17T11:16:26.222Z,18.33
2022-09-17T11:19:11.829Z,18.34
2022-09-17T11:21:38.398Z,18.32
2022-09-17T11:24:07.724Z,18.33
2022-09-17T11:26:49.826Z,18.31
2022-09-17T11:29:22.289Z,18.30
2022-09-17T11:32:25.554Z,18.28
2022-09-17T11:35:18.982Z,18.28
2022-09-17T11:38:01.817Z,18.27
2022-09-17T11:40:37.895Z,18.27
2022-09-17T11:43:30.202Z,18.25
2022-09-17T11:45:59.734Z,18.25
2022-09-17T11:48:35.093Z,18.25
2022-09-17T11:51:24.798Z,18.22
2022-09-17T11:54:01.287Z,18.25
2022-09-17T11:56:41.359Z,18.25
2022-09-17T11:59:26.892Z,18.22
2022-09-17T12:02:02.423Z,18.24
2022-09-17T12:04:44.560Z,18.22
2022-09-17T12:07:22.468Z,18.21
2022-09-17T12:09:55.308Z,18.20
2022-09-17T12:12:47.830Z,18.19
2022-09-17T12:15:20.348Z,18.22
2022-09-17T12:18:14.269Z,18.19
2022-09-17T12:20:47.880Z,18.35
2022-09-17T12:23:21.019Z,18.52
2022-09-17T12:25:55.769Z,18.60
2022-09-17T12:28:33.893Z,18.68
2022-09-17T12:31:10.590Z,18.69
2022-09-17T12:34:18.245Z,18.75
2022-09-17T12:36:53.361Z,18.74
2022-09-17T12:39:38.584Z,18.87
2022-09-17T12:42:05.316Z,18.84
2022-09-17T12:45:04.228Z,18.82
2022-09-17T12:47:49.805Z,18.87
2022-09-17T12:50:42.266Z,18.85
2022-09-17T12:53:29.132Z,18.89
2022-09-17T12:56:05.450Z,18.93
2022-09-17T12:58:48.773Z,18.96
2022-09-17T13:01:37.429Z,18.98
2022-09-17T13:05:00.555Z,19.02
2022-09-17T13:07:36.757Z,19.05
2022-09-17T13:10:21.713Z,19.03
2022-09-17T13:13:22.714Z,19.07
2022-09-17T13:16:17.097Z,19.06
2022-09-17T13:19:16.629Z,19.07
2022-09-17T13:21:58.754Z,18.91
2022-09-17T13:24:29.710Z,18.93
2022-09-17T13:26:58.690Z,18.90
2022-09-17T13:29:43.929Z,18.91
2022-09-17T13:32:35.100Z,18.97
2022-09-17T13:35:10.467Z,18.93
2022-09-17T13:37:45.694Z,18.95
2022-09-17T13:40:22.889Z,18.90
2022-09-17T13:42:55.415Z,18.97
2022-09-17T13:45:24.088Z,18.95
2022-09-17T13:48:03.013Z,18.92
2022-09-17T13:50:34.851Z,18.91
2022-09-17T13:53:18.122Z,18.98
2022-09-17T13:55:56.070Z,18.93
2022-09-17T13:58:28.021Z,18.91
2022-09-17T14:01:01.220Z,18.88
2022-09-17T14:03:31.081Z,18.96
2022-09-17T14:06:22.100Z,19.00
2022-09-17T14:08:54.593Z,18.92
2022-09-17T14:11:23.943Z,18.91
2022-09-17T14:13:53.289Z,18.83
2022-09-17T14:16:35.627Z,18.77
2022-09-17T14:19:39.728Z,18.78
2022-09-17T14:22:06.502Z,18.77
2022-09-17T14:24:37.315Z,18.76
2022-09-17T14:27:10.925Z,18.72
2022-09-17T14:29:48.739Z,18.72
2022-09-17T14:32:30.044Z,18.74
2022-09-17T14:34:57.391Z,18.78
2022-09-17T14:37:24.943Z,18.86
2022-09-17T14:39:53.156Z,18.86
2022-09-17T14:42:24.576Z,18.95
2022-09-17T14:45:04.803Z,18.89
2022-09-17T14:47:31.418Z,18.90
2022-09-17T14:50:20.021Z,18.89
2022-09-17T14:52:51.891Z,18.89
2022-09-17T14:55:32.189Z,18.84
2022-09-17T14:58:04.795Z,18.83
2022-09-17T15:00:35.400Z,18.87
2022-09-17T15:03:02.250Z,18.98
2022-09-17T15:05:38.951Z,18.97
2022-09-17T15:08:12.688Z,18.93
2022-09-17T15:10:46.156Z,18.91
2022-09-17T15:13:17.333Z,18.92
2022-09-17T15:15:56.000Z,18.95
2022-09-17T15:18:48.616Z,18.87
2022-09-17T15:21:39.650Z,18.96
2022-09-17T15:24:36.250Z,19.01
2022-09-17T15:27:13.737Z,19.01
2022-09-17T15:29:46.171Z,18.93
2022-09-17T15:32:14.189Z,18.92
2022-09-17T15:34:41.760Z,18.89
2022-09-17T15:37:25.540Z,18.91
2022-09-17T15:39:55.026Z,18.98
2022-09-17T15:42:27.208Z,18.95
2022-09-17T15:45:17.996Z,19.05
2022-09-17T15:48:00.574Z,19.07
2022-09-17T15:50:32.766Z,19.08
2022-09-17T15:53:05.518Z,19.12
2022-09-17T15:55:58.533Z,19.07
2022-09-17T15:58:26.958Z,19.00
2022-09-17T16:01:18.289Z,19.00
2022-09-17T16:03:45.217Z,19.10
2022-09-17T16:06:21.087Z,19.03
2022-09-17T16:08:59.183Z,19.08
2022-09-17T16:11:28.042Z,18.99
2022-09-17T16:13:57.176Z,18.98
2022-09-17T16:16:27.976Z,19.02
2022-09-17T16:18:54.756Z,19.04
2022-09-17T16:21:21.465Z,18.97
2022-09-17T16:23:48.178Z,19.14
2022-09-17T16:26:20.888Z,19.26
2022-09-17T16:28:50.829Z,19.19
2022-09-17T16:31:17.624Z,19.22
2022-09-17T16:33:44.482Z,19.22
2022-09-17T16:36:11.526Z,19.22
2022-09-17T16:38:38.907Z,19.20
2022-09-17T16:41:06.147Z,19.21
2022-09-17T16:43:34.557Z,19.24
2022-09-17T16:46:05.997Z,19.27
2022-09-17T16:48:33.371Z,19.28
2022-09-17T16:51:03.599Z,19.34
2022-09-17T16:53:30.192Z,19.35
2022-09-17T16:55:56.842Z,19.42
2022-09-17T16:58:23.638Z,19.47
2022-09-17T17:00:50.571Z,19.38
2022-09-17T17:03:17.235Z,19.37
2022-09-17T17:05:43.959Z,19.41
2022-09-17T17:08:10.798Z,19.32
2022-09-17T17:10:38.771Z,19.28
2022-09-17T17:13:05.787Z,19.30
2022-09-17T17:15:32.586Z,19.32
2022-09-17T17:17:59.257Z,19.23
2022-09-17T17:20:25.925Z,19.24
2022-09-17T17:22:52.921Z,19.16
2022-09-17T17:25:19.571Z,19.20
2022-09-17T17:27:46.313Z,19.13
2022-09-17T17:30:17.379Z,19.11
2022-09-17T17:32:49.086Z,19.08
2022-09-17T17:35:16.088Z,19.05
2022-09-17T17:37:42.909Z,18.98
2022-09-17T17:40:10.421Z,19.04
2022-09-17T17:42:39.550Z,18.97
2022-09-17T17:45:07.997Z,19.00
2022-09-17T17:47:34.686Z,18.96
2022-09-17T17:50:01.449Z,18.94
2022-09-17T17:52:28.547Z,18.94
2022-09-17T17:54:55.176Z,18.94
2022-09-17T17:57:21.958Z,18.91
2022-09-17T17:59:48.757Z,18.90
2022-09-17T18:02:15.582Z,18.90
2022-09-17T18:04:42.719Z,18.90
2022-09-17T18:07:09.491Z,18.88
2022-09-17T18:09:36.325Z,18.88
2022-09-17T18:12:03.280Z,18.95
2022-09-17T18:14:30.075Z,18.87
2022-09-17T18:16:56.700Z,18.83
2022-09-17T18:19:23.296Z,18.82
2022-09-17T18:21:50.290Z,18.83
2022-09-17T18:24:17.228Z,18.82
2022-09-17T18:26:44.007Z,18.85
2022-09-17T18:29:11.831Z,18.80
2022-09-17T18:31:38.854Z,18.77
2022-09-17T18:34:13.328Z,18.71
2022-09-17T18:36:40.928Z,18.80
2022-09-17T18:39:52.876Z,18.78
2022-09-17T18:41:58.626Z,18.73
2022-09-17T18:44:25.373Z,18.76
2022-09-17T18:46:51.976Z,18.76
2022-09-17T18:49:18.771Z,18.83
2022-09-17T18:51:45.651Z,18.74
2022-09-17T18:54:15.437Z,18.73
2022-09-17T18:56:42.361Z,18.72
2022-09-17T18:59:10.069Z,18.76
2022-09-17T19:01:36.791Z,18.77
2022-09-17T19:04:04.216Z,18.74
2022-09-17T19:06:32.394Z,18.73
2022-09-17T19:09:00.855Z,18.82
2022-09-17T19:11:28.301Z,18.83
2022-09-17T19:13:55.325Z,18.78
2022-09-17T19:16:22.493Z,18.74
2022-09-17T19:18:49.894Z,18.72
2022-09-17T19:21:21.831Z,18.74
2022-09-17T19:23:51.428Z,18.76
2022-09-17T19:26:20.146Z,18.78
2022-09-17T19:28:46.982Z,18.76
2022-09-17T19:31:16.327Z,18.69
2022-09-17T19:33:43.444Z,18.71
2022-09-17T19:36:18.274Z,18.70
2022-09-17T19:38:45.419Z,18.65
2022-09-17T19:41:15.465Z,18.68
2022-09-17T19:43:42.386Z,18.72
2022-09-17T19:46:17.807Z,18.67
2022-09-17T19:48:52.182Z,18.68
2022-09-17T19:51:19.142Z,18.70
2022-09-17T19:53:46.166Z,18.69
2022-09-17T19:56:14.643Z,18.68
2022-09-17T19:58:42.024Z,18.73
2022-09-17T20:01:09.263Z,18.67
2022-09-17T20:03:37.738Z,18.64
2022-09-17T20:06:07.310Z,18.64
2022-09-17T20:08:39.283Z,18.96
2022-09-17T20:11:10.142Z,18.93
2022-09-17T20:13:37.292Z,18.91
2022-09-17T20:16:21.724Z,18.94
2022-09-17T20:18:50.014Z,19.06
2022-09-17T20:21:28.829Z,19.07
2022-09-17T20:23:56.356Z,19.04
2022-09-17T20:26:23.652Z,19.02
2022-09-17T20:28:51.791Z,19.08
2022-09-17T20:31:23.836Z,19.13
2022-09-17T20:33:55.280Z,19.12
2022-09-17T20:36:24.622Z,19.09
2022-09-17T20:39:14.289Z,19.13
2022-09-17T20:41:39.212Z,19.11
2022-09-17T20:44:07.103Z,19.17
2022-09-17T20:46:34.088Z,19.19
2022-09-17T20:49:00.989Z,19.17
2022-09-17T20:51:29.522Z,19.23
2022-09-17T20:53:57.312Z,19.29
2022-09-17T20:56:27.009Z,19.32
2022-09-17T20:59:01.317Z,19.25
2022-09-17T21:01:32.828Z,19.25
2022-09-17T21:04:00.976Z,19.23
2022-09-17T21:06:30.185Z,19.17
2022-09-17T21:08:57.553Z,19.22
2022-09-17T21:11:24.762Z,19.22
2022-09-17T21:13:52.206Z,19.23
2022-09-17T21:16:19.506Z,19.25
2022-09-17T21:18:46.696Z,19.30
2022-09-17T21:21:15.835Z,19.33
2022-09-17T21:23:42.720Z,19.30
2022-09-17T21:26:20.559Z,19.31
2022-09-17T21:28:49.211Z,19.26
2022-09-17T21:31:31.739Z,19.28
2022-09-17T21:34:02.015Z,19.32
2022-09-17T21:36:30.918Z,19.36
2022-09-17T21:39:00.596Z,19.31
2022-09-17T21:41:27.374Z,19.35
2022-09-17T21:43:54.661Z,19.36
2022-09-17T21:46:27.169Z,19.31
2022-09-17T21:48:56.082Z,19.37
2022-09-17T21:51:37.665Z,19.33
2022-09-17T21:54:06.752Z,19.37
2022-09-17T21:56:34.113Z,19.35
2022-09-17T21:59:03.343Z,19.35
2022-09-17T22:01:33.091Z,19.30
2022-09-17T22:04:02.042Z,19.32
2022-09-17T22:06:30.709Z,19.35
2022-09-17T22:08:58.849Z,19.39
2022-09-17T22:11:30.330Z,19.27
2022-09-17T22:14:00.804Z,19.30
2022-09-17T22:16:30.692Z,19.32
2022-09-17T22:19:02.799Z,19.40
2022-09-17T22:21:31.866Z,19.08
2022-09-17T22:24:00.405Z,19.06
2022-09-17T22:26:29.627Z,19.01
2022-09-17T22:28:56.563Z,19.03
2022-09-17T22:31:23.242Z,18.98
2022-09-17T22:33:50.659Z,19.02
2022-09-17T22:36:19.834Z,19.09
2022-09-17T22:38:57.982Z,19.05
2022-09-17T22:41:28.295Z,19.00
2022-09-17T22:43:57.501Z,18.91
2022-09-17T22:46:27.017Z,18.90
2022-09-17T22:48:54.585Z,18.87
2022-09-17T22:51:21.780Z,18.86
2022-09-17T22:53:48.437Z,18.74
2022-09-17T22:56:17.560Z,18.72
2022-09-17T22:58:44.615Z,18.73
2022-09-17T23:01:15.698Z,18.75
2022-09-17T23:03:43.791Z,18.69
2022-09-17T23:06:13.464Z,18.70
2022-09-17T23:08:40.931Z,18.74
2022-09-17T23:11:15.261Z,18.71
2022-09-17T23:13:42.122Z,18.67
2022-09-17T23:16:09.647Z,18.62
2022-09-17T23:18:37.160Z,18.59
2022-09-17T23:21:13.356Z,18.55
2022-09-17T23:23:41.722Z,18.48
2022-09-17T23:26:11.820Z,18.48
2022-09-17T23:28:39.915Z,18.47
2022-09-17T23:31:27.357Z,18.43
2022-09-17T23:33:55.286Z,18.50
2022-09-17T23:36:25.338Z,18.54
2022-09-17T23:38:53.939Z,18.47
2022-09-17T23:41:23.460Z,18.42
2022-09-17T23:43:55.339Z,18.38
2022-09-17T23:46:24.059Z,18.36
2022-09-17T23:48:53.434Z,18.37
2022-09-17T23:51:20.939Z,18.38
2022-09-17T23:53:48.204Z,18.38
2022-09-17T23:56:18.818Z,18.34
2022-09-17T23:58:46.291Z,18.32
